| Time | Avg. Air Temp | Dew Point | Avg. Rel Humidity | Avg. 2 Min Wind Speed | Max Gust Velocity | MGV Time | MGV Direction | Avg. Spot Wind Velocity |
|---|---|---|---|---|---|---|---|---|
| 2026-05-05 04:05:00 | 0° C | -8° C | 53% | 28 km/h | 34 km/h | 04:04:00 | NE | 22 km/h |
| 03:05:00 | 1° C | -8° C | 51% | 24 km/h | 37 km/h | 03:01:00 | N | 23 km/h |
| 02:05:00 | 1° C | -8° C | 52% | 28 km/h | 35 km/h | 02:02:00 | NE | 29 km/h |
| 01:05:00 | 1° C | -7° C | 55% | 35 km/h | 44 km/h | 01:01:00 | NE | 36 km/h |
| 00:05:00 | 1° C | -6° C | 57% | 38 km/h | 44 km/h | 00:02:00 | NE | 38 km/h |
| 23:05:00 | 2° C | -5° C | 59% | 26 km/h | 41 km/h | 23:01:00 | NE | 24 km/h |
| 22:05:00 | 3° C | -5° C | 57% | 37 km/h | 46 km/h | 22:05:00 | NE | 37 km/h |
| 21:05:00 | 3° C | -5° C | 57% | 14 km/h | 37 km/h | 21:03:00 | N | 24 km/h |
| 20:05:00 | 4° C | -5° C | 56% | 20 km/h | 30 km/h | 20:05:00 | NW | 14 km/h |
| 19:05:00 | 5° C | -3° C | 55% | 14 km/h | 22 km/h | 19:05:00 | NE | 9 km/h |
| 18:05:00 | 5° C | -3° C | 55% | 9 km/h | 17 km/h | 18:01:00 | NE | 9 km/h |
| 17:05:00 | 6° C | -4° C | 51% | 9 km/h | 17 km/h | 17:04:00 | NE | 9 km/h |
| 16:05:00 | 6° C | -3° C | 52% | 4 km/h | 8 km/h | 16:03:00 | W | 4 km/h |
| 15:05:00 | 7° C | -3° C | 51% | 6 km/h | 21 km/h | 15:04:00 | N | 3 km/h |
| 14:05:00 | 6° C | -3° C | 51% | 3 km/h | 11 km/h | 14:05:00 | NE | 2 km/h |
| 13:05:00 | 5° C | -3° C | 54% | 0 km/h | 11 km/h | 13:02:00 | SW | 3 km/h |
| 12:05:00 | 5° C | -3° C | 56% | 9 km/h | 14 km/h | 12:02:00 | NE | 8 km/h |
| 11:05:00 | 3° C | -3° C | 61% | 22 km/h | 30 km/h | 11:02:00 | NE | 19 km/h |
| 10:05:00 | 3° C | -3° C | 63% | 34 km/h | 46 km/h | 10:04:00 | NE | 34 km/h |
| 09:05:00 | 3° C | -3° C | 62% | 31 km/h | 35 km/h | 09:04:00 | NE | 30 km/h |
| 08:05:00 | 3° C | -4° C | 61% | 27 km/h | 35 km/h | 08:03:00 | NE | 28 km/h |
| 07:05:00 | 3° C | -4° C | 60% | 31 km/h | 38 km/h | 07:02:00 | NE | 36 km/h |
| 06:05:00 | 4° C | -4° C | 58% | 20 km/h | 25 km/h | 06:01:00 | N | 20 km/h |
| 05:05:00 | 4° C | -4° C | 57% | 22 km/h | 24 km/h | 05:05:00 | NE | 22 km/h |
Subpeak Weather
| Time | Avg. Air Temp | Dew Point | Avg. Rel Humidity | Avg. 2 Min Wind Speed | Max Gust Velocity | MGV Time | MGV Direction | Avg. Spot Wind Velocity |
|---|---|---|---|---|---|---|---|---|
| 2026-05-05 04:05:00 | 0° C | -8° C | 53% | 28 km/h | 34 km/h | 04:04:00 | NE | 22 km/h |
| 04:00:00 | 1° C | -8° C | 52% | 25 km/h | 36 km/h | 03:58:00 | NE | 26 km/h |
| 03:55:00 | 1° C | -8° C | 51% | 27 km/h | 37 km/h | 03:51:00 | NE | 30 km/h |
| 03:50:00 | 1° C | -8° C | 51% | 33 km/h | 38 km/h | 03:50:00 | NE | 31 km/h |
| 03:45:00 | 1° C | -8° C | 52% | 30 km/h | 37 km/h | 03:41:00 | NE | 30 km/h |
| 03:40:00 | 1° C | -8° C | 52% | 30 km/h | 36 km/h | 03:38:00 | NE | 31 km/h |
| 03:35:00 | 1° C | -8° C | 51% | 30 km/h | 37 km/h | 03:32:00 | NE | 33 km/h |
| 03:30:00 | 1° C | -8° C | 51% | 31 km/h | 40 km/h | 03:28:00 | NE | 34 km/h |
| 03:25:00 | 1° C | -8° C | 51% | 32 km/h | 39 km/h | 03:21:00 | NE | 32 km/h |
| 03:20:00 | 1° C | -8° C | 51% | 31 km/h | 37 km/h | 03:20:00 | NE | 30 km/h |
| 03:15:00 | 1° C | -8° C | 51% | 30 km/h | 34 km/h | 03:11:00 | NE | 31 km/h |
| 03:10:00 | 1° C | -8° C | 52% | 28 km/h | 35 km/h | 03:10:00 | NE | 27 km/h |
| 03:05:00 | 1° C | -8° C | 51% | 24 km/h | 37 km/h | 03:01:00 | N | 23 km/h |




